createdAt,value
2022-11-19T00:01:14.072Z,97226.22
2022-11-19T00:03:18.246Z,97226.09
2022-11-19T00:05:21.574Z,97231.88
2022-11-19T00:07:26.145Z,97229.03
2022-11-19T00:09:29.322Z,97228.91
2022-11-19T00:11:50.070Z,97220.13
2022-11-19T00:13:53.065Z,97222.63
2022-11-19T00:15:56.357Z,97220.97
2022-11-19T00:17:59.548Z,97220.00
2022-11-19T00:20:02.677Z,97218.38
2022-11-19T00:22:05.717Z,97222.16
2022-11-19T00:24:10.467Z,97221.34
2022-11-19T00:26:14.945Z,97217.06
2022-11-19T00:28:17.979Z,97216.50
2022-11-19T00:30:46.257Z,97211.78
2022-11-19T00:32:44.544Z,97209.41
2022-11-19T00:34:47.558Z,97212.81
2022-11-19T00:36:50.863Z,97216.84
2022-11-19T00:38:53.863Z,97219.47
2022-11-19T00:40:58.330Z,97213.31
2022-11-19T00:43:19.040Z,97216.75
2022-11-19T00:45:21.985Z,97216.63
2022-11-19T00:47:25.057Z,97218.66
2022-11-19T00:49:28.257Z,97216.28
2022-11-19T00:51:31.748Z,97212.25
2022-11-19T00:53:34.771Z,97206.81
2022-11-19T00:55:38.790Z,97206.94
2022-11-19T00:57:45.534Z,97205.03
2022-11-19T00:59:48.492Z,97209.88
2022-11-19T01:01:51.593Z,97210.69
2022-11-19T01:03:55.164Z,97214.16
2022-11-19T01:05:58.667Z,97204.69
2022-11-19T01:08:01.643Z,97205.50
2022-11-19T01:10:05.244Z,97204.81
2022-11-19T01:12:08.313Z,97206.47
2022-11-19T01:14:11.643Z,97203.75
2022-11-19T01:16:16.423Z,97210.69
2022-11-19T01:18:20.257Z,97221.13
2022-11-19T01:20:23.324Z,97221.00
2022-11-19T01:22:26.384Z,97222.66
2022-11-19T01:24:29.379Z,97228.81
2022-11-19T01:26:32.365Z,97226.19
2022-11-19T01:28:35.857Z,97216.41
2022-11-19T01:30:42.737Z,97222.41
2022-11-19T01:32:45.843Z,97218.75
2022-11-19T01:34:49.902Z,97218.88
2022-11-19T01:36:52.931Z,97222.19
2022-11-19T01:38:56.533Z,97223.84
2022-11-19T01:40:59.983Z,97225.47
2022-11-19T01:43:02.945Z,97222.75
2022-11-19T01:45:08.605Z,97221.81
2022-11-19T01:47:12.980Z,97225.25
2022-11-19T01:49:18.774Z,97226.91
2022-11-19T01:51:24.448Z,97221.59
2022-11-19T01:53:29.485Z,97225.84
2022-11-19T01:55:32.804Z,97221.59
2022-11-19T01:57:36.175Z,97224.06
2022-11-19T01:59:40.292Z,97225.00
2022-11-19T02:01:44.411Z,97228.56
2022-11-19T02:03:49.312Z,97225.00
2022-11-19T02:05:52.599Z,97235.41
2022-11-19T02:07:57.392Z,97238.72
2022-11-19T02:10:01.987Z,97227.38
2022-11-19T02:12:16.066Z,97232.44
2022-11-19T02:14:29.320Z,97235.88
2022-11-19T02:16:35.587Z,97235.06
2022-11-19T02:18:45.442Z,97239.44
2022-11-19T02:20:56.820Z,97234.25
2022-11-19T02:23:32.043Z,97235.19
2022-11-19T02:25:47.672Z,97235.19
2022-11-19T02:28:06.101Z,97230.78
2022-11-19T02:30:12.357Z,97238.47
2022-11-19T02:32:17.192Z,97242.03
2022-11-19T02:34:24.294Z,97238.47
2022-11-19T02:36:29.721Z,97234.94
2022-11-19T02:38:39.631Z,97229.72
2022-11-19T02:40:45.309Z,97239.56
2022-11-19T02:42:54.514Z,97236.25
2022-11-19T02:45:00.781Z,97244.91
2022-11-19T02:47:11.588Z,97243.91
2022-11-19T02:49:15.792Z,97245.47
2022-11-19T02:51:19.557Z,97238.47
2022-11-19T02:53:22.961Z,97237.66
2022-11-19T02:55:26.266Z,97246.28
2022-11-19T02:57:29.262Z,97248.06
2022-11-19T02:59:52.844Z,97247.50
2022-11-19T03:02:13.258Z,97245.00
2022-11-19T03:04:33.638Z,97249.28
2022-11-19T03:06:36.658Z,97245.59
2022-11-19T03:08:39.846Z,97256.00
2022-11-19T03:10:47.183Z,97245.47
2022-11-19T03:12:53.577Z,97248.06
2022-11-19T03:15:16.017Z,97251.38
2022-11-19T03:17:21.344Z,97261.78
2022-11-19T03:19:38.822Z,97254.09
2022-11-19T03:21:47.234Z,97255.75
2022-11-19T03:23:54.488Z,97256.59
2022-11-19T03:26:02.070Z,97253.84
2022-11-19T03:28:09.584Z,97256.34
2022-11-19T03:30:13.245Z,97256.34
2022-11-19T03:32:20.716Z,97261.56
2022-11-19T03:34:24.655Z,97262.41
2022-11-19T03:36:32.842Z,97263.22
2022-11-19T03:38:42.264Z,97261.56
2022-11-19T03:40:45.775Z,97265.81
2022-11-19T03:42:51.635Z,97265.00
2022-11-19T03:44:57.970Z,97264.03
2022-11-19T03:47:03.208Z,97270.91
2022-11-19T03:49:08.309Z,97276.00
2022-11-19T03:51:14.730Z,97266.28
2022-11-19T03:53:19.653Z,97267.13
2022-11-19T03:55:25.835Z,97269.72
2022-11-19T03:57:29.248Z,97271.38
2022-11-19T03:59:32.350Z,97286.19
2022-11-19T04:01:36.780Z,97281.78
2022-11-19T04:03:40.132Z,97283.44
2022-11-19T04:05:43.080Z,97288.53
2022-11-19T04:07:46.118Z,97281.66
2022-11-19T04:09:50.856Z,97285.03
2022-11-19T04:13:55.740Z,97280.63
2022-11-19T04:15:58.838Z,97293.53
2022-11-19T04:18:01.823Z,97289.88
2022-11-19T04:20:05.573Z,97284.66
2022-11-19T04:22:08.680Z,97282.06
2022-11-19T04:24:11.801Z,97283.69
2022-11-19T04:26:16.206Z,97279.56
2022-11-19T04:28:19.208Z,97280.63
2022-11-19T04:30:22.169Z,97285.25
2022-11-19T04:32:25.282Z,97280.84
2022-11-19T04:34:28.201Z,97275.63
2022-11-19T04:36:31.233Z,97272.09
2022-11-19T04:38:34.717Z,97279.81
2022-11-19T04:40:39.128Z,97277.31
2022-11-19T04:42:43.415Z,97273.97
2022-11-19T04:44:46.352Z,97278.47
2022-11-19T04:46:49.455Z,97274.94
2022-11-19T04:48:52.515Z,97283.56
2022-11-19T04:50:55.647Z,97283.56
2022-11-19T04:53:00.277Z,97281.78
2022-11-19T04:55:03.319Z,97285.94
2022-11-19T04:57:06.292Z,97280.72
2022-11-19T04:59:10.722Z,97281.56
2022-11-19T05:01:13.799Z,97287.63
2022-11-19T05:03:16.812Z,97283.25
2022-11-19T05:05:19.816Z,97287.50
2022-11-19T05:07:22.903Z,97284.19
2022-11-19T05:09:25.991Z,97275.50
2022-11-19T05:11:29.031Z,97287.63
2022-11-19T05:13:32.057Z,97290.13
2022-11-19T05:15:36.404Z,97280.63
2022-11-19T05:17:39.337Z,97284.78
2022-11-19T05:19:42.266Z,97283.94
2022-11-19T05:21:45.357Z,97280.41
2022-11-19T05:23:48.388Z,97288.91
2022-11-19T05:25:51.322Z,97288.91
2022-11-19T05:27:54.365Z,97286.19
2022-11-19T05:29:57.349Z,97280.28
2022-11-19T05:32:01.843Z,97281.09
2022-11-19T05:34:05.268Z,97283.69
2022-11-19T05:36:08.935Z,97281.22
2022-11-19T05:38:11.931Z,97280.63
2022-11-19T05:40:15.645Z,97284.19
2022-11-19T05:42:18.663Z,97277.31
2022-11-19T05:44:21.679Z,97287.00
2022-11-19T05:46:24.788Z,97289.59
2022-11-19T05:48:29.278Z,97281.91
2022-11-19T05:50:32.425Z,97278.72
2022-11-19T05:52:38.348Z,97277.91
2022-11-19T05:54:41.383Z,97283.22
2022-11-19T05:56:47.200Z,97287.81
2022-11-19T05:58:50.203Z,97283.72
2022-11-19T06:00:55.912Z,97294.13
2022-11-19T06:02:59.065Z,97287.50
2022-11-19T06:05:03.805Z,97295.28
2022-11-19T06:07:07.106Z,97292.47
2022-11-19T06:09:10.321Z,97300.97
2022-11-19T06:11:33.274Z,97296.50
2022-11-19T06:13:36.225Z,97300.59
2022-11-19T06:15:39.282Z,97298.84
2022-11-19T06:17:42.321Z,97307.59
2022-11-19T06:19:45.425Z,97301.56
2022-11-19T06:21:50.439Z,97306.56
2022-11-19T06:23:53.447Z,97303.09
2022-11-19T06:25:57.786Z,97314.13
2022-11-19T06:28:00.779Z,97308.78
2022-11-19T06:30:04.074Z,97312.09
2022-11-19T06:32:06.995Z,97312.91
2022-11-19T06:34:10.082Z,97318.03
2022-11-19T06:36:13.183Z,97318.88
2022-11-19T06:38:17.586Z,97319.47
2022-11-19T06:40:20.587Z,97323.75
2022-11-19T06:42:38.876Z,97326.22
2022-11-19T06:44:41.862Z,97329.88
2022-11-19T06:46:44.839Z,97329.88
2022-11-19T06:48:47.871Z,97321.25
2022-11-19T06:50:50.914Z,97328.09
2022-11-19T06:52:53.837Z,97327.53
2022-11-19T06:54:58.187Z,97333.44
2022-11-19T06:57:01.244Z,97342.09
2022-11-19T06:59:04.170Z,97341.00
2022-11-19T07:01:07.200Z,97341.84
2022-11-19T07:03:10.195Z,97340.75
2022-11-19T07:05:13.205Z,97337.22
2022-11-19T07:07:16.172Z,97348.47
2022-11-19T07:09:19.495Z,97344.91
2022-11-19T07:11:26.913Z,97340.66
2022-11-19T07:13:50.214Z,97342.31
2022-11-19T07:15:53.302Z,97346.81
2022-11-19T07:17:56.853Z,97346.81
2022-11-19T07:20:00.078Z,97352.97
2022-11-19T07:22:03.130Z,97353.91
2022-11-19T07:24:08.617Z,97358.06
2022-11-19T07:26:11.622Z,97358.06
2022-11-19T07:28:16.118Z,97360.53
2022-11-19T07:30:19.367Z,97361.38
2022-11-19T07:32:22.455Z,97361.13
2022-11-19T07:34:25.749Z,97368.13
2022-11-19T07:36:28.970Z,97363.03
2022-11-19T07:38:36.779Z,97359.72
2022-11-19T07:40:40.213Z,97370.38
2022-11-19T07:42:51.585Z,97370.38
2022-11-19T07:44:56.135Z,97376.28
2022-11-19T07:46:59.200Z,97375.25
2022-11-19T07:49:02.348Z,97377.00
2022-11-19T07:51:05.324Z,97382.19
2022-11-19T07:53:08.335Z,97379.13
2022-11-19T07:55:11.864Z,97384.09
2022-11-19T07:57:15.093Z,97386.59
2022-11-19T07:59:18.649Z,97389.09
2022-11-19T08:01:24.449Z,97387.91
2022-11-19T08:03:27.529Z,97386.00
2022-11-19T08:05:30.497Z,97389.44
2022-11-19T08:07:33.605Z,97384.34
2022-11-19T08:09:36.780Z,97384.22
2022-11-19T08:11:40.566Z,97395.34
2022-11-19T08:13:43.994Z,97392.50
2022-11-19T08:15:47.217Z,97394.75
2022-11-19T08:18:09.192Z,97395.34
2022-11-19T08:20:12.484Z,97387.41
2022-11-19T08:22:15.522Z,97383.84
2022-11-19T08:24:20.744Z,97389.78
2022-11-19T08:26:23.956Z,97390.47
2022-11-19T08:28:27.080Z,97390.25
2022-11-19T08:30:30.585Z,97390.13
2022-11-19T08:32:33.680Z,97390.56
2022-11-19T08:34:38.139Z,97396.28
2022-11-19T08:36:41.114Z,97395.91
2022-11-19T08:38:44.182Z,97406.06
2022-11-19T08:40:52.421Z,97408.44
2022-11-19T08:43:00.526Z,97410.09
2022-11-19T08:45:03.630Z,97414.13
2022-11-19T08:47:06.692Z,97418.63
2022-11-19T08:49:09.848Z,97423.03
2022-11-19T08:51:14.900Z,97428.94
2022-11-19T08:53:18.043Z,97419.34
2022-11-19T08:55:21.100Z,97419.34
2022-11-19T08:57:24.191Z,97425.38
2022-11-19T08:59:27.737Z,97434.75
2022-11-19T09:01:30.966Z,97426.56
2022-11-19T09:03:34.098Z,97434.03
2022-11-19T09:05:37.160Z,97430.22
2022-11-19T09:07:41.554Z,97435.31
2022-11-19T09:09:44.666Z,97434.50
2022-11-19T09:11:47.862Z,97440.41
2022-11-19T09:13:51.098Z,97445.38
2022-11-19T09:15:54.283Z,97440.03
2022-11-19T09:17:57.427Z,97441.56
2022-11-19T09:20:00.467Z,97441.34
2022-11-19T09:22:03.545Z,97446.56
2022-11-19T09:24:08.418Z,97442.16
2022-11-19T09:26:26.278Z,97447.97
2022-11-19T09:28:30.304Z,97446.09
2022-11-19T09:30:33.449Z,97443.72
2022-11-19T09:32:36.529Z,97454.75
2022-11-19T09:34:41.388Z,97455.06
2022-11-19T09:36:44.391Z,97456.25
2022-11-19T09:38:47.912Z,97460.13
2022-11-19T09:40:55.126Z,97462.38
2022-11-19T09:43:07.736Z,97452.06
2022-11-19T09:45:19.709Z,97452.91
2022-11-19T09:47:30.865Z,97455.53
2022-11-19T09:49:38.808Z,97452.19
2022-11-19T09:51:44.642Z,97453.97
2022-11-19T09:53:52.371Z,97453.28
2022-11-19T09:55:57.248Z,97457.66
2022-11-19T09:58:01.331Z,97454.22
2022-11-19T10:00:07.255Z,97450.66
2022-11-19T10:02:18.286Z,97448.19
2022-11-19T10:04:24.280Z,97450.78
2022-11-19T10:06:30.443Z,97448.63
2022-11-19T10:08:48.079Z,97441.50
2022-11-19T10:11:03.187Z,97454.31
2022-11-19T10:13:25.320Z,97455.03
2022-11-19T10:15:37.355Z,97454.19
2022-11-19T10:17:48.016Z,97446.47
2022-11-19T10:20:01.530Z,97442.84
2022-11-19T10:22:09.385Z,97444.59
2022-11-19T10:24:18.245Z,97440.34
2022-11-19T10:26:28.126Z,97437.50
2022-11-19T10:28:32.915Z,97437.38
2022-11-19T10:30:36.241Z,97436.53
2022-11-19T10:32:42.802Z,97434.88
2022-11-19T10:34:46.482Z,97443.28
2022-11-19T10:36:52.124Z,97442.22
2022-11-19T10:38:58.544Z,97434.72
2022-11-19T10:41:05.033Z,97436.25
2022-11-19T10:43:22.032Z,97435.28
2022-11-19T10:45:29.683Z,97427.72
2022-11-19T10:47:35.861Z,97424.53
2022-11-19T10:49:40.795Z,97428.22
2022-11-19T10:51:43.979Z,97424.91
2022-11-19T10:53:47.283Z,97431.31
2022-11-19T10:55:54.645Z,97424.09
2022-11-19T10:58:08.655Z,97428.75
2022-11-19T11:00:14.647Z,97420.09
2022-11-19T11:02:28.120Z,97426.13
2022-11-19T11:04:31.834Z,97415.69
2022-11-19T11:06:52.921Z,97414.88
2022-11-19T11:08:56.614Z,97415.25
2022-11-19T11:11:00.200Z,97415.50
2022-11-19T11:13:27.212Z,97416.31
2022-11-19T11:15:30.613Z,97414.44
2022-11-19T11:17:35.240Z,97416.31
2022-11-19T11:19:38.483Z,97420.00
2022-11-19T11:21:43.633Z,97421.91
2022-11-19T11:23:52.418Z,97425.59
2022-11-19T11:26:01.157Z,97416.22
2022-11-19T11:28:06.719Z,97417.91
2022-11-19T11:30:17.526Z,97420.50
2022-11-19T11:32:30.803Z,97422.13
2022-11-19T11:34:37.235Z,97419.53
2022-11-19T11:36:40.704Z,97422.25
2022-11-19T11:38:45.588Z,97413.75
2022-11-19T11:41:48.533Z,97425.22
2022-11-19T11:43:29.034Z,97411.50
2022-11-19T11:45:33.781Z,97411.50
2022-11-19T11:47:40.055Z,97418.50
2022-11-19T11:49:44.779Z,97414.34
2022-11-19T11:51:47.923Z,97416.13
2022-11-19T11:54:04.572Z,97416.13
2022-11-19T11:56:09.950Z,97409.25
2022-11-19T11:58:26.758Z,97415.28
2022-11-19T12:00:33.327Z,97423.84
2022-11-19T12:02:38.332Z,97422.88
2022-11-19T12:04:41.568Z,97420.25
2022-11-19T12:06:50.967Z,97416.97
2022-11-19T12:09:02.193Z,97413.41
2022-11-19T12:11:08.767Z,97423.84
2022-11-19T12:13:37.106Z,97416.13
2022-11-19T12:15:49.484Z,97422.41
2022-11-19T12:18:00.145Z,97424.09
2022-11-19T12:20:20.831Z,97418.75
2022-11-19T12:22:32.509Z,97419.44
2022-11-19T12:24:54.246Z,97415.78
2022-11-19T12:27:08.828Z,97424.28
2022-11-19T12:29:20.985Z,97423.34
2022-11-19T12:31:33.098Z,97416.59
2022-11-19T12:33:58.137Z,97413.16
2022-11-19T12:36:10.513Z,97421.00
2022-11-19T12:38:36.358Z,97418.38
2022-11-19T12:40:45.522Z,97412.81
2022-11-19T12:42:54.808Z,97414.97
2022-11-19T12:45:03.773Z,97418.06
2022-11-19T12:47:12.236Z,97419.72
2022-11-19T12:49:42.591Z,97419.75
2022-11-19T12:51:53.025Z,97418.44
2022-11-19T12:54:16.912Z,97426.00
2022-11-19T12:56:32.348Z,97426.84
2022-11-19T12:58:43.738Z,97424.09
2022-11-19T13:00:53.180Z,97425.78
2022-11-19T13:03:04.858Z,97433.59
2022-11-19T13:05:14.784Z,97430.88
2022-11-19T13:07:23.102Z,97430.88
2022-11-19T13:09:33.300Z,97423.88
2022-11-19T13:11:38.270Z,97427.44
2022-11-19T13:13:45.024Z,97421.50
2022-11-19T13:15:51.217Z,97420.69
2022-11-19T13:17:55.590Z,97428.63
2022-11-19T13:20:04.291Z,97429.31
2022-11-19T13:22:14.985Z,97427.19
2022-11-19T13:24:29.066Z,97428.72
2022-11-19T13:26:33.199Z,97424.44
2022-11-19T13:28:41.157Z,97426.94
2022-11-19T13:30:46.565Z,97421.00
2022-11-19T13:32:58.352Z,97433.34
2022-11-19T13:35:06.978Z,97426.47
2022-11-19T13:37:16.900Z,97423.88
2022-11-19T13:39:24.024Z,97419.63
2022-11-19T13:41:32.212Z,97422.47
2022-11-19T13:43:53.173Z,97429.31
2022-11-19T13:46:04.299Z,97416.66
2022-11-19T13:48:14.584Z,97416.88
2022-11-19T13:50:20.192Z,97417.72
2022-11-19T13:52:27.913Z,97420.22
2022-11-19T13:54:35.800Z,97425.78
2022-11-19T13:56:42.348Z,97422.34
2022-11-19T13:58:47.896Z,97425.78
2022-11-19T14:01:11.389Z,97413.00
2022-11-19T14:03:25.448Z,97421.50
2022-11-19T14:06:06.814Z,97427.44
2022-11-19T14:08:20.540Z,97421.28
2022-11-19T14:10:27.566Z,97427.31
2022-11-19T14:12:42.462Z,97425.44
2022-11-19T14:15:13.256Z,97423.75
2022-11-19T14:17:40.287Z,97428.97
2022-11-19T14:20:06.942Z,97426.84
2022-11-19T14:22:49.904Z,97430.28
2022-11-19T14:25:15.857Z,97427.22
2022-11-19T14:27:20.357Z,97427.31
2022-11-19T14:29:55.489Z,97433.34
2022-11-19T14:32:19.371Z,97431.81
2022-11-19T14:34:29.847Z,97437.16
2022-11-19T14:36:44.030Z,97445.47
2022-11-19T14:38:49.588Z,97444.13
2022-11-19T14:41:04.669Z,97437.41
2022-11-19T14:43:44.619Z,97440.38
2022-11-19T14:46:21.080Z,97434.31
2022-11-19T14:48:24.209Z,97445.03
2022-11-19T14:50:28.958Z,97447.16
2022-11-19T14:52:34.443Z,97443.72
2022-11-19T14:54:40.448Z,97451.53
2022-11-19T14:56:47.980Z,97461.81
2022-11-19T14:58:52.666Z,97456.63
2022-11-19T15:01:07.045Z,97455.09
2022-11-19T15:03:22.522Z,97461.13
2022-11-19T15:05:30.787Z,97461.25
2022-11-19T15:07:42.657Z,97454.97
2022-11-19T15:10:05.352Z,97458.03
2022-11-19T15:12:10.045Z,97460.88
2022-11-19T15:15:01.596Z,97454.78
2022-11-19T15:17:04.981Z,97460.22
2022-11-19T15:19:28.817Z,97451.94
2022-11-19T15:22:01.523Z,97463.38
2022-11-19T15:24:10.447Z,97461.81
2022-11-19T15:26:19.551Z,97460.19
2022-11-19T15:28:34.531Z,97461.94
2022-11-19T15:30:59.093Z,97463.72
2022-11-19T15:33:32.666Z,97464.78
2022-11-19T15:35:48.117Z,97458.97
2022-11-19T15:37:54.896Z,97455.31
2022-11-19T15:39:58.330Z,97454.25
2022-11-19T15:42:04.578Z,97456.13
2022-11-19T15:44:15.152Z,97461.56
2022-11-19T15:46:26.006Z,97456.47
2022-11-19T15:48:36.890Z,97448.91
2022-11-19T15:50:43.007Z,97453.28
2022-11-19T15:52:58.896Z,97461.91
2022-11-19T15:55:19.755Z,97462.03
2022-11-19T15:57:25.228Z,97458.72
2022-11-19T15:59:31.881Z,97457.88
2022-11-19T16:01:35.405Z,97454.22
2022-11-19T16:03:39.035Z,97463.69
2022-11-19T16:05:46.301Z,97461.31
2022-11-19T16:07:53.157Z,97452.69
2022-11-19T16:09:56.694Z,97460.59
2022-11-19T16:12:17.395Z,97457.88
2022-11-19T16:14:38.887Z,97460.50
2022-11-19T16:17:00.648Z,97459.75
2022-11-19T16:19:06.832Z,97458.94
2022-11-19T16:21:09.943Z,97457.16
2022-11-19T16:23:14.812Z,97457.16
2022-11-19T16:25:21.753Z,97460.59
2022-11-19T16:27:25.694Z,97464.03
2022-11-19T16:29:29.102Z,97458.00
2022-11-19T16:31:32.434Z,97472.66
2022-11-19T16:33:36.913Z,97466.75
2022-11-19T16:35:40.016Z,97468.41
2022-11-19T16:37:43.187Z,97473.63
2022-11-19T16:39:51.687Z,97471.13
2022-11-19T16:42:19.169Z,97477.97
2022-11-19T16:44:23.024Z,97471.94
2022-11-19T16:46:29.692Z,97471.22
2022-11-19T16:49:01.495Z,97475.69
2022-11-19T16:51:37.773Z,97483.59
2022-11-19T16:53:48.042Z,97474.06
2022-11-19T16:55:52.574Z,97481.84
2022-11-19T16:57:57.261Z,97486.09
2022-11-19T17:00:06.376Z,97479.25
2022-11-19T17:02:16.007Z,97480.91
2022-11-19T17:04:20.713Z,97476.44
2022-11-19T17:06:25.757Z,97483.38
2022-11-19T17:08:30.510Z,97485.06
2022-11-19T17:10:34.693Z,97479.84
2022-11-19T17:12:37.769Z,97487.66
2022-11-19T17:14:50.314Z,97482.56
2022-11-19T17:16:54.231Z,97489.34
2022-11-19T17:18:57.391Z,97489.44
2022-11-19T17:21:03.373Z,97503.38
2022-11-19T17:23:11.597Z,97502.44
2022-11-19T17:25:15.207Z,97500.78
2022-11-19T17:27:26.861Z,97503.50
2022-11-19T17:29:30.123Z,97506.09
2022-11-19T17:31:33.101Z,97518.16
2022-11-19T17:33:37.029Z,97511.06
2022-11-19T17:35:42.171Z,97513.69
2022-11-19T17:37:46.604Z,97511.06
2022-11-19T17:39:49.595Z,97504.19
2022-11-19T17:42:14.047Z,97511.19
2022-11-19T17:44:34.618Z,97524.19
2022-11-19T17:46:37.932Z,97514.59
2022-11-19T17:48:42.501Z,97518.16
2022-11-19T17:50:45.501Z,97522.31
2022-11-19T17:52:50.109Z,97517.09
2022-11-19T17:54:54.637Z,97520.56
2022-11-19T17:56:57.826Z,97526.78
2022-11-19T17:59:01.684Z,97528.69
2022-11-19T18:01:04.922Z,97522.13
2022-11-19T18:03:10.832Z,97521.53
2022-11-19T18:05:16.199Z,97529.03
2022-11-19T18:07:19.434Z,97527.72
2022-11-19T18:09:24.341Z,97525.00
2022-11-19T18:11:27.713Z,97529.25
2022-11-19T18:13:32.108Z,97527.72
2022-11-19T18:15:35.161Z,97532.31
2022-11-19T18:17:38.284Z,97531.56
2022-11-19T18:19:41.594Z,97529.19
2022-11-19T18:21:46.623Z,97526.59
2022-11-19T18:23:51.003Z,97537.94
2022-11-19T18:25:55.433Z,97537.84
2022-11-19T18:27:58.389Z,97533.47
2022-11-19T18:30:01.492Z,97537.94
2022-11-19T18:32:04.625Z,97539.78
2022-11-19T18:34:07.706Z,97546.78
2022-11-19T18:36:11.533Z,97530.25
2022-11-19T18:38:14.532Z,97536.97
2022-11-19T18:40:18.030Z,97538.66
2022-11-19T18:42:22.684Z,97543.75
2022-11-19T18:44:33.869Z,97546.13
2022-11-19T18:46:36.900Z,97544.34
2022-11-19T18:48:40.188Z,97540.94
2022-11-19T18:50:43.196Z,97546.03
2022-11-19T18:52:46.292Z,97552.16
2022-11-19T18:54:49.284Z,97547.81
2022-11-19T18:56:52.339Z,97552.16
2022-11-19T18:59:00.453Z,97549.56
2022-11-19T19:01:07.575Z,97545.41
2022-11-19T19:03:13.144Z,97547.06
2022-11-19T19:05:16.641Z,97549.16
2022-11-19T19:07:19.778Z,97546.78
2022-11-19T19:09:23.088Z,97551.16
2022-11-19T19:11:43.772Z,97554.69
2022-11-19T19:13:47.084Z,97546.88
2022-11-19T19:15:51.635Z,97556.56
2022-11-19T19:17:54.874Z,97557.59
2022-11-19T19:19:58.364Z,97557.00
2022-11-19T19:22:01.792Z,97562.09
2022-11-19T19:24:06.015Z,97570.72
2022-11-19T19:26:09.742Z,97569.03
2022-11-19T19:28:12.887Z,97568.09
2022-11-19T19:30:16.295Z,97569.78
2022-11-19T19:32:20.851Z,97566.22
2022-11-19T19:34:24.052Z,97570.72
2022-11-19T19:36:27.412Z,97571.53
2022-11-19T19:38:30.498Z,97571.53
2022-11-19T19:40:33.622Z,97563.72
2022-11-19T19:42:41.067Z,97574.22
2022-11-19T19:44:44.528Z,97578.63
2022-11-19T19:46:48.196Z,97582.03
2022-11-19T19:48:54.043Z,97583.72
2022-11-19T19:50:57.447Z,97581.94
2022-11-19T19:53:00.853Z,97583.50
2022-11-19T19:55:04.055Z,97586.19
2022-11-19T19:57:07.489Z,97585.38
2022-11-19T19:59:12.236Z,97585.38
2022-11-19T20:01:16.827Z,97593.28
2022-11-19T20:03:19.964Z,97587.34
2022-11-19T20:05:24.403Z,97589.81
2022-11-19T20:07:27.791Z,97598.59
2022-11-19T20:09:30.938Z,97596.91
2022-11-19T20:11:34.133Z,97602.13
2022-11-19T20:13:38.065Z,97597.13
2022-11-19T20:15:41.252Z,97597.94
2022-11-19T20:17:44.435Z,97610.13
2022-11-19T20:19:47.471Z,97599.81
2022-11-19T20:21:52.350Z,97600.75
2022-11-19T20:23:56.116Z,97598.16
2022-11-19T20:26:00.314Z,97603.47
2022-11-19T20:28:03.426Z,97597.66
2022-11-19T20:30:09.464Z,97601.06
2022-11-19T20:32:12.639Z,97608.03
2022-11-19T20:34:16.715Z,97599.44
2022-11-19T20:36:19.888Z,97606.25
2022-11-19T20:38:24.565Z,97605.53
2022-11-19T20:40:27.667Z,97605.53
2022-11-19T20:42:50.518Z,97605.66
2022-11-19T20:44:53.740Z,97608.34
2022-11-19T20:46:57.946Z,97612.84
2022-11-19T20:49:01.121Z,97608.56
2022-11-19T20:51:04.590Z,97620.03
2022-11-19T20:53:07.678Z,97629.06
2022-11-19T20:55:12.134Z,97617.94
2022-11-19T20:57:15.150Z,97622.28
2022-11-19T20:59:18.750Z,97621.47
2022-11-19T21:01:25.634Z,97622.28
2022-11-19T21:03:30.469Z,97624.88
2022-11-19T21:05:33.487Z,97624.97
2022-11-19T21:07:36.556Z,97629.56
2022-11-19T21:09:40.469Z,97628.59
2022-11-19T21:11:44.989Z,97620.00
2022-11-19T21:13:48.088Z,97622.59
2022-11-19T21:15:51.120Z,97622.69
2022-11-19T21:17:54.223Z,97621.88
2022-11-19T21:19:57.274Z,97626.22
2022-11-19T21:22:00.328Z,97621.97
2022-11-19T21:24:03.389Z,97621.97
2022-11-19T21:26:08.483Z,97625.50
2022-11-19T21:28:14.328Z,97614.28
2022-11-19T21:30:19.061Z,97622.28
2022-11-19T21:32:22.212Z,97623.50
2022-11-19T21:34:25.322Z,97613.22
2022-11-19T21:36:28.474Z,97615.06
2022-11-19T21:38:31.641Z,97617.03
2022-11-19T21:40:38.231Z,97612.56
2022-11-19T21:42:41.322Z,97611.75
2022-11-19T21:44:45.715Z,97614.34
2022-11-19T21:46:48.788Z,97603.94
2022-11-19T21:48:51.861Z,97604.78
2022-11-19T21:50:55.263Z,97604.06
2022-11-19T21:52:58.776Z,97604.97
2022-11-19T21:55:01.832Z,97604.06
2022-11-19T21:57:05.121Z,97602.38
2022-11-19T21:59:08.234Z,97611.94
2022-11-19T22:01:13.125Z,97614.44
2022-11-19T22:03:16.280Z,97611.00
2022-11-19T22:05:19.419Z,97610.16
2022-11-19T22:07:23.531Z,97616.19
2022-11-19T22:09:27.194Z,97616.09
2022-11-19T22:11:30.403Z,97618.56
2022-11-19T22:13:33.773Z,97622.22
2022-11-19T22:15:36.817Z,97621.38
2022-11-19T22:17:41.186Z,97610.16
2022-11-19T22:19:44.302Z,97617.97
2022-11-19T22:21:47.645Z,97619.63
2022-11-19T22:23:50.656Z,97616.94
2022-11-19T22:25:53.622Z,97625.53
2022-11-19T22:27:56.680Z,97618.69
2022-11-19T22:30:03.101Z,97614.34
2022-11-19T22:32:08.781Z,97624.56
2022-11-19T22:34:14.052Z,97622.78
2022-11-19T22:36:17.078Z,97626.09
2022-11-19T22:38:20.052Z,97620.09
2022-11-19T22:40:23.159Z,97619.88
2022-11-19T22:42:26.225Z,97621.84
2022-11-19T22:44:29.266Z,97622.03
2022-11-19T22:46:32.566Z,97622.03
2022-11-19T22:48:35.931Z,97625.38
2022-11-19T22:50:42.065Z,97615.91
2022-11-19T22:52:45.113Z,97620.44
2022-11-19T22:54:48.235Z,97614.63
2022-11-19T22:56:51.265Z,97616.38
2022-11-19T22:58:54.569Z,97621.56
2022-11-19T23:00:58.280Z,97627.41
2022-11-19T23:03:01.435Z,97617.97
2022-11-19T23:05:04.713Z,97623.25
2022-11-19T23:07:09.158Z,97622.44
2022-11-19T23:09:14.084Z,97619.94
2022-11-19T23:11:39.197Z,97628.75
2022-11-19T23:13:43.252Z,97625.03
2022-11-19T23:15:58.780Z,97606.09
2022-11-19T23:18:01.847Z,97616.38
2022-11-19T23:20:05.696Z,97616.38
2022-11-19T23:22:10.175Z,97614.00
2022-11-19T23:24:13.281Z,97617.53
2022-11-19T23:26:18.049Z,97621.97
2022-11-19T23:28:20.994Z,97617.75
2022-11-19T23:30:24.020Z,97610.06
2022-11-19T23:32:29.582Z,97612.09
2022-11-19T23:34:32.630Z,97609.69
2022-11-19T23:36:37.356Z,97615.66
2022-11-19T23:38:42.025Z,97608.78
2022-11-19T23:40:45.120Z,97614.88
2022-11-19T23:42:52.011Z,97608.88
2022-11-19T23:44:55.318Z,97608.88
2022-11-19T23:46:58.366Z,97609.59
2022-11-19T23:49:02.093Z,97612.00
2022-11-19T23:51:06.500Z,97610.34
2022-11-19T23:53:09.579Z,97613.66
2022-11-19T23:55:14.001Z,97617.84
2022-11-19T23:57:17.225Z,97615.97
2022-11-19T23:59:25.327Z,97619.28
